sensor_id;sensor_type;location;lat;lon;timestamp;pressure;altitude;pressure_sealevel;temperature;humidity
4469;BME280;2247;42.666;23.292;2024-01-30T00:01:54;96282.88;;;5.73;44.58
4469;BME280;2247;42.666;23.292;2024-01-30T00:04:20;96286.91;;;5.76;44.62
4469;BME280;2247;42.666;23.292;2024-01-30T00:06:50;96279.09;;;5.82;44.13
4469;BME280;2247;42.666;23.292;2024-01-30T00:09:18;96254.91;;;5.74;44.10
4469;BME280;2247;42.666;23.292;2024-01-30T00:11:45;96278.78;;;5.92;43.90
4469;BME280;2247;42.666;23.292;2024-01-30T00:14:12;96276.78;;;5.94;43.95
4469;BME280;2247;42.666;23.292;2024-01-30T00:16:39;96275.09;;;5.86;43.94
4469;BME280;2247;42.666;23.292;2024-01-30T00:19:06;96278.59;;;5.93;44.03
4469;BME280;2247;42.666;23.292;2024-01-30T00:21:33;96283.00;;;5.93;43.88
4469;BME280;2247;42.666;23.292;2024-01-30T00:24:02;96291.66;;;5.93;43.56
4469;BME280;2247;42.666;23.292;2024-01-30T00:26:29;96280.56;;;5.91;43.67
4469;BME280;2247;42.666;23.292;2024-01-30T00:28:56;96283.81;;;5.93;43.43
4469;BME280;2247;42.666;23.292;2024-01-30T00:31:24;96286.69;;;5.71;43.84
4469;BME280;2247;42.666;23.292;2024-01-30T00:33:51;96285.13;;;5.83;43.89
4469;BME280;2247;42.666;23.292;2024-01-30T00:36:18;96284.47;;;5.74;44.08
4469;BME280;2247;42.666;23.292;2024-01-30T00:38:45;96286.50;;;5.72;43.90
4469;BME280;2247;42.666;23.292;2024-01-30T00:41:17;96285.09;;;5.76;43.96
4469;BME280;2247;42.666;23.292;2024-01-30T00:43:44;96287.94;;;5.81;44.08
4469;BME280;2247;42.666;23.292;2024-01-30T00:46:11;96271.03;;;5.77;43.90
4469;BME280;2247;42.666;23.292;2024-01-30T00:48:38;96282.88;;;5.73;44.11
4469;BME280;2247;42.666;23.292;2024-01-30T00:51:05;96272.97;;;5.69;43.89
4469;BME280;2247;42.666;23.292;2024-01-30T00:53:32;96282.06;;;5.73;44.20
4469;BME280;2247;42.666;23.292;2024-01-30T00:55:59;96285.03;;;5.63;44.43
4469;BME280;2247;42.666;23.292;2024-01-30T00:58:28;96272.84;;;5.42;44.26
4469;BME280;2247;42.666;23.292;2024-01-30T01:00:55;96286.34;;;5.46;44.63
4469;BME280;2247;42.666;23.292;2024-01-30T01:03:21;96291.09;;;5.36;44.93
4469;BME280;2247;42.666;23.292;2024-01-30T01:05:48;96282.38;;;5.29;45.31
4469;BME280;2247;42.666;23.292;2024-01-30T01:08:15;96284.97;;;5.22;45.18
4469;BME280;2247;42.666;23.292;2024-01-30T01:10:43;96286.84;;;5.35;44.93
4469;BME280;2247;42.666;23.292;2024-01-30T01:13:10;96274.06;;;5.46;45.03
4469;BME280;2247;42.666;23.292;2024-01-30T01:15:38;96279.13;;;5.54;44.89
4469;BME280;2247;42.666;23.292;2024-01-30T01:18:05;96279.13;;;5.54;44.71
4469;BME280;2247;42.666;23.292;2024-01-30T01:20:32;96286.16;;;5.54;44.82
4469;BME280;2247;42.666;23.292;2024-01-30T01:22:59;96284.31;;;5.48;44.75
4469;BME280;2247;42.666;23.292;2024-01-30T01:25:26;96284.94;;;5.50;44.54
4469;BME280;2247;42.666;23.292;2024-01-30T01:27:53;96288.56;;;5.49;44.59
4469;BME280;2247;42.666;23.292;2024-01-30T01:30:20;96284.06;;;5.36;44.56
4469;BME280;2247;42.666;23.292;2024-01-30T01:32:49;96285.78;;;5.23;44.63
4469;BME280;2247;42.666;23.292;2024-01-30T01:35:21;96287.72;;;5.14;44.67
4469;BME280;2247;42.666;23.292;2024-01-30T01:37:48;96291.16;;;4.93;45.16
4469;BME280;2247;42.666;23.292;2024-01-30T01:40:21;96284.44;;;4.84;45.56
4469;BME280;2247;42.666;23.292;2024-01-30T01:42:49;96283.31;;;4.72;45.63
4469;BME280;2247;42.666;23.292;2024-01-30T01:45:16;96281.34;;;4.74;45.88
4469;BME280;2247;42.666;23.292;2024-01-30T01:47:44;96294.53;;;4.87;45.50
4469;BME280;2247;42.666;23.292;2024-01-30T01:50:14;96291.59;;;4.97;45.37
4469;BME280;2247;42.666;23.292;2024-01-30T01:52:44;96277.91;;;4.95;45.10
4469;BME280;2247;42.666;23.292;2024-01-30T01:55:12;96183.28;;;4.44;45.12
4469;BME280;2247;42.666;23.292;2024-01-30T01:57:39;96279.91;;;4.93;45.54
4469;BME280;2247;42.666;23.292;2024-01-30T02:00:07;96291.03;;;5.01;45.24
4469;BME280;2247;42.666;23.292;2024-01-30T02:02:36;96296.06;;;5.03;45.52
4469;BME280;2247;42.666;23.292;2024-01-30T02:05:03;96264.22;;;4.93;45.23
4469;BME280;2247;42.666;23.292;2024-01-30T02:07:32;96297.97;;;5.15;45.33
4469;BME280;2247;42.666;23.292;2024-01-30T02:09:59;96287.28;;;5.10;45.33
4469;BME280;2247;42.666;23.292;2024-01-30T02:12:26;96288.59;;;5.28;45.15
4469;BME280;2247;42.666;23.292;2024-01-30T02:14:53;96296.69;;;5.33;44.97
4469;BME280;2247;42.666;23.292;2024-01-30T02:17:20;96266.19;;;5.12;45.10
4469;BME280;2247;42.666;23.292;2024-01-30T02:19:48;96289.88;;;5.32;44.84
4469;BME280;2247;42.666;23.292;2024-01-30T02:22:17;96293.28;;;5.32;45.19
4469;BME280;2247;42.666;23.292;2024-01-30T02:24:44;96293.47;;;5.31;45.29
4469;BME280;2247;42.666;23.292;2024-01-30T02:27:11;96292.25;;;5.33;44.73
4469;BME280;2247;42.666;23.292;2024-01-30T02:29:38;96220.63;;;4.93;44.96
4469;BME280;2247;42.666;23.292;2024-01-30T02:32:06;96224.88;;;4.94;44.95
4469;BME280;2247;42.666;23.292;2024-01-30T02:34:33;96285.84;;;5.36;44.94
4469;BME280;2247;42.666;23.292;2024-01-30T02:37:00;96273.97;;;5.33;44.51
4469;BME280;2247;42.666;23.292;2024-01-30T02:39:28;96289.25;;;5.30;44.66
4469;BME280;2247;42.666;23.292;2024-01-30T02:41:55;96298.97;;;5.14;45.10
4469;BME280;2247;42.666;23.292;2024-01-30T02:44:22;96291.78;;;4.95;45.54
4469;BME280;2247;42.666;23.292;2024-01-30T02:46:49;96284.59;;;4.76;46.02
4469;BME280;2247;42.666;23.292;2024-01-30T02:49:16;96284.81;;;4.60;45.78
4469;BME280;2247;42.666;23.292;2024-01-30T02:51:43;96289.63;;;4.56;46.11
4469;BME280;2247;42.666;23.292;2024-01-30T02:54:10;96293.97;;;4.49;46.46
4469;BME280;2247;42.666;23.292;2024-01-30T02:56:39;96287.31;;;4.47;46.60
4469;BME280;2247;42.666;23.292;2024-01-30T02:59:06;96292.63;;;4.39;46.93
4469;BME280;2247;42.666;23.292;2024-01-30T03:01:33;96299.22;;;4.34;46.63
4469;BME280;2247;42.666;23.292;2024-01-30T03:04:00;96287.81;;;4.35;46.97
4469;BME280;2247;42.666;23.292;2024-01-30T03:06:27;96286.78;;;4.36;46.70
4469;BME280;2247;42.666;23.292;2024-01-30T03:08:54;96283.06;;;4.46;46.41
4469;BME280;2247;42.666;23.292;2024-01-30T03:11:21;96275.78;;;4.56;46.41
4469;BME280;2247;42.666;23.292;2024-01-30T03:13:49;96286.88;;;4.64;46.14
4469;BME280;2247;42.666;23.292;2024-01-30T03:16:16;96278.63;;;4.82;45.70
4469;BME280;2247;42.666;23.292;2024-01-30T03:18:43;96285.88;;;4.87;45.24
4469;BME280;2247;42.666;23.292;2024-01-30T03:21:10;96277.06;;;4.88;45.00
4469;BME280;2247;42.666;23.292;2024-01-30T03:23:37;96287.03;;;4.84;45.03
4469;BME280;2247;42.666;23.292;2024-01-30T03:26:04;96285.13;;;4.50;45.81
4469;BME280;2247;42.666;23.292;2024-01-30T03:28:32;96274.38;;;4.60;45.82
4469;BME280;2247;42.666;23.292;2024-01-30T03:31:01;96291.91;;;4.45;44.99
4469;BME280;2247;42.666;23.292;2024-01-30T03:33:27;96281.16;;;4.54;45.67
4469;BME280;2247;42.666;23.292;2024-01-30T03:35:54;96285.69;;;4.46;45.73
4469;BME280;2247;42.666;23.292;2024-01-30T03:38:21;96277.63;;;4.41;45.89
4469;BME280;2247;42.666;23.292;2024-01-30T03:40:48;96282.06;;;4.25;45.88
4469;BME280;2247;42.666;23.292;2024-01-30T03:43:15;96279.88;;;4.08;46.52
4469;BME280;2247;42.666;23.292;2024-01-30T03:45:42;96275.00;;;4.05;46.45
4469;BME280;2247;42.666;23.292;2024-01-30T03:48:10;96269.34;;;4.01;46.43
4469;BME280;2247;42.666;23.292;2024-01-30T03:50:37;96277.84;;;4.24;46.50
4469;BME280;2247;42.666;23.292;2024-01-30T03:53:04;96265.53;;;4.18;45.76
4469;BME280;2247;42.666;23.292;2024-01-30T03:55:31;96275.13;;;4.32;46.27
4469;BME280;2247;42.666;23.292;2024-01-30T03:57:58;96271.34;;;4.35;45.28
4469;BME280;2247;42.666;23.292;2024-01-30T04:00:25;96273.25;;;4.26;45.27
4469;BME280;2247;42.666;23.292;2024-01-30T04:02:52;96261.31;;;4.17;45.01
4469;BME280;2247;42.666;23.292;2024-01-30T04:05:20;96264.53;;;4.19;44.20
4469;BME280;2247;42.666;23.292;2024-01-30T04:07:47;96263.56;;;4.20;44.70
4469;BME280;2247;42.666;23.292;2024-01-30T04:10:14;96266.47;;;4.32;44.58
4469;BME280;2247;42.666;23.292;2024-01-30T04:12:41;96266.38;;;4.04;45.14
4469;BME280;2247;42.666;23.292;2024-01-30T04:15:09;96274.94;;;3.98;45.24
4469;BME280;2247;42.666;23.292;2024-01-30T04:17:36;96263.97;;;3.88;45.40
4469;BME280;2247;42.666;23.292;2024-01-30T04:20:04;96263.63;;;3.91;45.50
4469;BME280;2247;42.666;23.292;2024-01-30T04:22:32;96264.34;;;3.85;45.61
4469;BME280;2247;42.666;23.292;2024-01-30T04:24:59;96260.75;;;3.86;45.98
4469;BME280;2247;42.666;23.292;2024-01-30T04:27:26;96264.69;;;3.96;45.73
4469;BME280;2247;42.666;23.292;2024-01-30T04:29:53;96266.84;;;3.93;46.02
4469;BME280;2247;42.666;23.292;2024-01-30T04:32:20;96267.34;;;4.03;45.27
4469;BME280;2247;42.666;23.292;2024-01-30T04:34:48;96279.94;;;4.14;45.53
4469;BME280;2247;42.666;23.292;2024-01-30T04:37:15;96279.13;;;4.14;45.63
4469;BME280;2247;42.666;23.292;2024-01-30T04:39:44;96263.66;;;4.12;45.48
4469;BME280;2247;42.666;23.292;2024-01-30T04:42:11;96254.94;;;4.05;45.65
4469;BME280;2247;42.666;23.292;2024-01-30T04:44:38;96254.28;;;4.18;45.44
4469;BME280;2247;42.666;23.292;2024-01-30T04:47:06;96279.47;;;4.25;45.57
4469;BME280;2247;42.666;23.292;2024-01-30T04:49:34;96278.34;;;4.34;45.33
4469;BME280;2247;42.666;23.292;2024-01-30T04:52:02;96280.53;;;4.52;44.98
4469;BME280;2247;42.666;23.292;2024-01-30T04:54:29;96278.22;;;4.43;44.82
4469;BME280;2247;42.666;23.292;2024-01-30T04:56:57;96276.63;;;4.42;44.62
4469;BME280;2247;42.666;23.292;2024-01-30T04:59:25;96286.84;;;4.43;44.63
4469;BME280;2247;42.666;23.292;2024-01-30T05:01:52;96290.09;;;4.45;44.80
4469;BME280;2247;42.666;23.292;2024-01-30T05:04:20;96290.41;;;4.35;45.07
4469;BME280;2247;42.666;23.292;2024-01-30T05:06:47;96305.53;;;4.25;45.04
4469;BME280;2247;42.666;23.292;2024-01-30T05:09:14;96296.47;;;4.21;45.45
4469;BME280;2247;42.666;23.292;2024-01-30T05:11:42;96293.25;;;4.19;44.18
4469;BME280;2247;42.666;23.292;2024-01-30T05:14:11;96274.38;;;4.03;45.02
4469;BME280;2247;42.666;23.292;2024-01-30T05:16:40;96308.63;;;4.14;45.70
4469;BME280;2247;42.666;23.292;2024-01-30T05:19:09;96266.84;;;3.93;45.56
4469;BME280;2247;42.666;23.292;2024-01-30T05:21:36;96297.09;;;4.23;45.48
4469;BME280;2247;42.666;23.292;2024-01-30T05:24:04;96308.28;;;4.39;45.10
4469;BME280;2247;42.666;23.292;2024-01-30T05:26:31;96297.03;;;4.38;44.71
4469;BME280;2247;42.666;23.292;2024-01-30T05:28:59;96271.63;;;4.25;44.51
4469;BME280;2247;42.666;23.292;2024-01-30T05:31:44;96323.81;;;4.61;44.80
4469;BME280;2247;42.666;23.292;2024-01-30T05:34:21;96244.13;;;4.08;44.43
4469;BME280;2247;42.666;23.292;2024-01-30T05:42:29;96267.03;;;3.77;45.40
4469;BME280;2247;42.666;23.292;2024-01-30T05:45:00;96280.00;;;3.85;45.56
4469;BME280;2247;42.666;23.292;2024-01-30T05:47:29;96289.75;;;3.97;45.72
4469;BME280;2247;42.666;23.292;2024-01-30T05:49:57;96306.19;;;4.13;45.15
4469;BME280;2247;42.666;23.292;2024-01-30T05:52:26;96269.44;;;4.08;45.40
4469;BME280;2247;42.666;23.292;2024-01-30T05:54:53;96314.22;;;4.47;44.92
4469;BME280;2247;42.666;23.292;2024-01-30T05:57:21;96306.38;;;4.47;44.30
4469;BME280;2247;42.666;23.292;2024-01-30T05:59:53;96303.41;;;4.50;44.43
4469;BME280;2247;42.666;23.292;2024-01-30T06:02:20;96297.22;;;4.36;44.72
4469;BME280;2247;42.666;23.292;2024-01-30T06:04:50;96298.34;;;4.27;44.76
4469;BME280;2247;42.666;23.292;2024-01-30T06:07:17;96289.84;;;4.04;45.06
4469;BME280;2247;42.666;23.292;2024-01-30T06:09:44;96306.94;;;3.92;47.10
4469;BME280;2247;42.666;23.292;2024-01-30T06:12:12;96293.28;;;3.90;45.94
4469;BME280;2247;42.666;23.292;2024-01-30T06:14:39;96307.84;;;3.84;45.76
4469;BME280;2247;42.666;23.292;2024-01-30T06:17:07;96308.75;;;3.77;46.12
4469;BME280;2247;42.666;23.292;2024-01-30T06:19:34;96306.25;;;3.69;46.46
4469;BME280;2247;42.666;23.292;2024-01-30T06:22:03;96307.13;;;3.76;46.31
4469;BME280;2247;42.666;23.292;2024-01-30T06:24:30;96305.75;;;3.94;46.04
4469;BME280;2247;42.666;23.292;2024-01-30T06:26:57;96320.72;;;4.01;46.34
4469;BME280;2247;42.666;23.292;2024-01-30T06:29:24;96318.88;;;4.01;45.68
4469;BME280;2247;42.666;23.292;2024-01-30T06:31:52;96316.00;;;3.96;46.03
4469;BME280;2247;42.666;23.292;2024-01-30T06:34:19;96313.41;;;3.96;46.15
4469;BME280;2247;42.666;23.292;2024-01-30T06:36:46;96314.06;;;3.83;46.55
4469;BME280;2247;42.666;23.292;2024-01-30T06:39:14;96318.81;;;3.94;46.60
4469;BME280;2247;42.666;23.292;2024-01-30T06:41:42;96313.94;;;4.06;46.14
4469;BME280;2247;42.666;23.292;2024-01-30T06:44:09;96318.13;;;4.22;46.02
4469;BME280;2247;42.666;23.292;2024-01-30T06:46:36;96317.34;;;4.21;45.93
4469;BME280;2247;42.666;23.292;2024-01-30T06:49:03;96317.59;;;4.26;45.82
4469;BME280;2247;42.666;23.292;2024-01-30T06:51:30;96317.75;;;4.40;45.82
4469;BME280;2247;42.666;23.292;2024-01-30T06:53:57;96316.38;;;4.44;45.57
4469;BME280;2247;42.666;23.292;2024-01-30T06:56:26;96320.38;;;4.61;46.09
4469;BME280;2247;42.666;23.292;2024-01-30T06:58:53;96307.09;;;4.77;44.76
4469;BME280;2247;42.666;23.292;2024-01-30T07:01:20;96322.06;;;5.11;43.87
4469;BME280;2247;42.666;23.292;2024-01-30T07:03:47;96317.31;;;5.21;43.33
4469;BME280;2247;42.666;23.292;2024-01-30T07:06:15;96331.22;;;5.28;42.42
4469;BME280;2247;42.666;23.292;2024-01-30T07:08:42;96324.94;;;5.44;42.50
4469;BME280;2247;42.666;23.292;2024-01-30T07:11:09;96318.34;;;5.54;42.04
4469;BME280;2247;42.666;23.292;2024-01-30T07:13:39;96317.13;;;5.50;40.86
4469;BME280;2247;42.666;23.292;2024-01-30T07:16:06;96312.00;;;5.36;40.47
4469;BME280;2247;42.666;23.292;2024-01-30T07:18:33;96325.97;;;5.22;41.28
4469;BME280;2247;42.666;23.292;2024-01-30T07:21:00;96324.38;;;5.27;43.35
4469;BME280;2247;42.666;23.292;2024-01-30T07:23:27;96333.28;;;5.33;41.67
4469;BME280;2247;42.666;23.292;2024-01-30T07:25:55;96331.47;;;5.33;40.53
4469;BME280;2247;42.666;23.292;2024-01-30T07:28:22;96326.81;;;5.29;40.46
4469;BME280;2247;42.666;23.292;2024-01-30T07:30:51;96331.28;;;5.35;40.69
4469;BME280;2247;42.666;23.292;2024-01-30T07:33:18;96318.03;;;5.36;40.39
4469;BME280;2247;42.666;23.292;2024-01-30T07:35:45;96320.00;;;5.34;40.01
4469;BME280;2247;42.666;23.292;2024-01-30T07:38:12;96326.91;;;5.42;39.91
4469;BME280;2247;42.666;23.292;2024-01-30T07:40:39;96311.84;;;5.44;39.91
4469;BME280;2247;42.666;23.292;2024-01-30T07:43:06;96319.31;;;5.47;39.60
4469;BME280;2247;42.666;23.292;2024-01-30T07:45:33;96309.69;;;5.54;41.68
4469;BME280;2247;42.666;23.292;2024-01-30T07:48:02;96310.59;;;5.68;40.72
4469;BME280;2247;42.666;23.292;2024-01-30T07:50:29;96307.41;;;5.72;39.81
4469;BME280;2247;42.666;23.292;2024-01-30T07:52:56;96301.44;;;5.85;39.51
4469;BME280;2247;42.666;23.292;2024-01-30T07:55:23;96310.41;;;6.04;38.96
4469;BME280;2247;42.666;23.292;2024-01-30T07:57:53;96276.19;;;5.99;38.48
4469;BME280;2247;42.666;23.292;2024-01-30T08:00:20;96313.91;;;6.24;37.76
4469;BME280;2247;42.666;23.292;2024-01-30T08:02:48;96307.28;;;6.21;37.81
4469;BME280;2247;42.666;23.292;2024-01-30T08:05:16;96303.91;;;6.34;37.71
4469;BME280;2247;42.666;23.292;2024-01-30T08:07:43;96306.53;;;6.41;37.38
4469;BME280;2247;42.666;23.292;2024-01-30T08:10:12;96291.34;;;6.23;37.55
4469;BME280;2247;42.666;23.292;2024-01-30T08:12:39;96296.66;;;6.36;37.54
4469;BME280;2247;42.666;23.292;2024-01-30T08:15:06;96301.50;;;6.39;37.54
4469;BME280;2247;42.666;23.292;2024-01-30T08:17:34;96298.09;;;6.45;37.38
4469;BME280;2247;42.666;23.292;2024-01-30T08:20:01;96302.16;;;6.54;37.16
4469;BME280;2247;42.666;23.292;2024-01-30T08:22:31;96300.53;;;6.60;37.32
4469;BME280;2247;42.666;23.292;2024-01-30T08:24:58;96273.94;;;6.56;37.04
4469;BME280;2247;42.666;23.292;2024-01-30T08:27:25;96302.19;;;6.81;36.93
4469;BME280;2247;42.666;23.292;2024-01-30T08:29:52;96297.97;;;6.86;36.92
4469;BME280;2247;42.666;23.292;2024-01-30T08:32:19;96304.63;;;6.89;36.52
4469;BME280;2247;42.666;23.292;2024-01-30T08:34:46;96293.53;;;6.87;36.60
4469;BME280;2247;42.666;23.292;2024-01-30T08:37:13;96269.56;;;6.90;36.50
4469;BME280;2247;42.666;23.292;2024-01-30T08:39:43;96309.25;;;7.26;36.43
4469;BME280;2247;42.666;23.292;2024-01-30T08:42:10;96307.25;;;7.28;36.17
4469;BME280;2247;42.666;23.292;2024-01-30T08:44:37;96320.97;;;7.17;36.11
4469;BME280;2247;42.666;23.292;2024-01-30T08:47:05;96311.31;;;7.04;36.00
4469;BME280;2247;42.666;23.292;2024-01-30T08:49:31;96319.97;;;7.05;36.16
4469;BME280;2247;42.666;23.292;2024-01-30T08:51:58;96314.91;;;6.97;36.16
4469;BME280;2247;42.666;23.292;2024-01-30T08:54:25;96325.94;;;6.72;36.80
4469;BME280;2247;42.666;23.292;2024-01-30T08:56:53;96319.69;;;6.67;36.62
4469;BME280;2247;42.666;23.292;2024-01-30T08:59:22;96324.75;;;6.68;37.07
4469;BME280;2247;42.666;23.292;2024-01-30T09:01:48;96310.84;;;6.75;36.94
4469;BME280;2247;42.666;23.292;2024-01-30T09:04:18;96325.16;;;6.85;36.93
4469;BME280;2247;42.666;23.292;2024-01-30T09:06:45;96334.84;;;6.85;36.67
4469;BME280;2247;42.666;23.292;2024-01-30T09:09:12;96321.53;;;6.73;36.72
4469;BME280;2247;42.666;23.292;2024-01-30T09:11:40;96323.09;;;6.61;37.47
4469;BME280;2247;42.666;23.292;2024-01-30T09:14:08;96317.50;;;6.70;37.74
4469;BME280;2247;42.666;23.292;2024-01-30T09:16:35;96322.69;;;6.57;37.64
4469;BME280;2247;42.666;23.292;2024-01-30T09:19:03;96318.97;;;6.32;38.19
4469;BME280;2247;42.666;23.292;2024-01-30T09:21:29;96317.97;;;6.26;38.88
4469;BME280;2247;42.666;23.292;2024-01-30T09:24:01;96316.56;;;6.37;39.15
4469;BME280;2247;42.666;23.292;2024-01-30T09:26:28;96298.47;;;6.36;39.88
4469;BME280;2247;42.666;23.292;2024-01-30T09:28:55;96308.69;;;6.24;39.89
4469;BME280;2247;42.666;23.292;2024-01-30T09:31:24;96291.28;;;6.03;40.32
4469;BME280;2247;42.666;23.292;2024-01-30T09:33:51;96311.28;;;6.17;40.62
4469;BME280;2247;42.666;23.292;2024-01-30T09:36:19;96311.03;;;6.06;39.82
4469;BME280;2247;42.666;23.292;2024-01-30T09:38:47;96301.34;;;6.00;40.44
4469;BME280;2247;42.666;23.292;2024-01-30T09:41:14;96299.00;;;5.83;40.53
4469;BME280;2247;42.666;23.292;2024-01-30T09:43:46;96319.25;;;5.68;41.08
4469;BME280;2247;42.666;23.292;2024-01-30T09:46:17;96291.75;;;5.44;41.88
4469;BME280;2247;42.666;23.292;2024-01-30T09:48:47;96297.25;;;5.56;41.61
4469;BME280;2247;42.666;23.292;2024-01-30T09:51:15;96264.63;;;5.18;41.60
4469;BME280;2247;42.666;23.292;2024-01-30T09:53:43;96301.13;;;5.32;42.17
4469;BME280;2247;42.666;23.292;2024-01-30T09:56:10;96306.63;;;5.16;42.54
4469;BME280;2247;42.666;23.292;2024-01-30T09:58:38;96315.59;;;5.07;42.54
4469;BME280;2247;42.666;23.292;2024-01-30T10:01:06;96297.81;;;4.96;42.48
4469;BME280;2247;42.666;23.292;2024-01-30T10:03:33;96311.81;;;4.88;42.90
4469;BME280;2247;42.666;23.292;2024-01-30T10:06:01;96296.38;;;4.72;43.25
4469;BME280;2247;42.666;23.292;2024-01-30T10:08:28;96303.63;;;4.70;43.42
4469;BME280;2247;42.666;23.292;2024-01-30T10:10:56;96291.28;;;4.64;43.48
4469;BME280;2247;42.666;23.292;2024-01-30T10:13:23;96286.88;;;4.64;43.47
4469;BME280;2247;42.666;23.292;2024-01-30T10:15:50;96282.09;;;4.68;43.74
4469;BME280;2247;42.666;23.292;2024-01-30T10:18:17;96287.56;;;4.73;43.72
4469;BME280;2247;42.666;23.292;2024-01-30T10:20:45;96280.47;;;4.88;43.68
4469;BME280;2247;42.666;23.292;2024-01-30T10:23:14;96274.63;;;4.86;43.71
4469;BME280;2247;42.666;23.292;2024-01-30T10:25:41;96284.88;;;4.88;42.86
4469;BME280;2247;42.666;23.292;2024-01-30T10:28:08;96273.94;;;4.78;42.58
4469;BME280;2247;42.666;23.292;2024-01-30T10:30:35;96297.75;;;4.89;42.65
4469;BME280;2247;42.666;23.292;2024-01-30T10:33:02;96298.13;;;4.86;43.25
4469;BME280;2247;42.666;23.292;2024-01-30T10:35:29;96306.78;;;4.87;42.99
4469;BME280;2247;42.666;23.292;2024-01-30T10:37:57;96302.97;;;4.89;43.46
4469;BME280;2247;42.666;23.292;2024-01-30T10:40:27;96299.81;;;4.94;42.87
4469;BME280;2247;42.666;23.292;2024-01-30T10:42:55;96290.91;;;4.88;42.86
4469;BME280;2247;42.666;23.292;2024-01-30T10:45:22;96267.34;;;4.82;42.92
4469;BME280;2247;42.666;23.292;2024-01-30T10:47:50;96277.94;;;5.23;42.59
4469;BME280;2247;42.666;23.292;2024-01-30T10:50:20;96281.34;;;5.23;42.16
4469;BME280;2247;42.666;23.292;2024-01-30T10:52:48;96285.91;;;5.14;42.24
4469;BME280;2247;42.666;23.292;2024-01-30T10:55:16;96278.13;;;5.21;42.15
4469;BME280;2247;42.666;23.292;2024-01-30T10:57:46;96273.16;;;5.33;41.75
4469;BME280;2247;42.666;23.292;2024-01-30T11:00:14;96262.47;;;5.28;42.23
4469;BME280;2247;42.666;23.292;2024-01-30T11:02:43;96260.13;;;5.39;41.98
4469;BME280;2247;42.666;23.292;2024-01-30T11:05:12;96268.25;;;5.17;42.39
4469;BME280;2247;42.666;23.292;2024-01-30T11:07:41;96255.31;;;5.08;42.65
4469;BME280;2247;42.666;23.292;2024-01-30T11:10:08;96252.25;;;5.05;43.05
4469;BME280;2247;42.666;23.292;2024-01-30T11:12:39;96268.00;;;5.11;43.01
4469;BME280;2247;42.666;23.292;2024-01-30T11:15:11;96217.88;;;5.01;42.72
4469;BME280;2247;42.666;23.292;2024-01-30T11:17:42;96245.03;;;5.07;42.74
4469;BME280;2247;42.666;23.292;2024-01-30T11:20:10;96249.28;;;5.08;42.83
4469;BME280;2247;42.666;23.292;2024-01-30T11:22:41;96246.09;;;5.12;42.98
4469;BME280;2247;42.666;23.292;2024-01-30T11:25:11;96260.91;;;5.05;42.77
4469;BME280;2247;42.666;23.292;2024-01-30T11:27:39;96259.94;;;4.85;43.40
4469;BME280;2247;42.666;23.292;2024-01-30T11:30:07;96249.56;;;4.70;43.46
4469;BME280;2247;42.666;23.292;2024-01-30T11:32:36;96251.47;;;4.55;44.23
4469;BME280;2247;42.666;23.292;2024-01-30T11:35:04;96250.53;;;4.42;44.13
4469;BME280;2247;42.666;23.292;2024-01-30T11:37:32;96246.28;;;4.19;44.94
4469;BME280;2247;42.666;23.292;2024-01-30T11:40:04;96251.19;;;4.29;44.87
4469;BME280;2247;42.666;23.292;2024-01-30T11:42:31;96248.78;;;4.49;44.94
4469;BME280;2247;42.666;23.292;2024-01-30T11:45:00;96245.97;;;4.71;44.18
4469;BME280;2247;42.666;23.292;2024-01-30T11:47:28;96244.09;;;4.87;43.79
4469;BME280;2247;42.666;23.292;2024-01-30T11:49:57;96248.59;;;4.99;43.69
4469;BME280;2247;42.666;23.292;2024-01-30T11:52:24;96223.34;;;5.06;43.26
4469;BME280;2247;42.666;23.292;2024-01-30T11:54:51;96237.97;;;5.29;43.06
4469;BME280;2247;42.666;23.292;2024-01-30T11:57:18;96240.66;;;5.42;42.57
4469;BME280;2247;42.666;23.292;2024-01-30T11:59:45;96230.81;;;5.44;42.48
4469;BME280;2247;42.666;23.292;2024-01-30T12:02:15;96230.41;;;5.47;42.25
4469;BME280;2247;42.666;23.292;2024-01-30T12:04:43;96213.75;;;5.48;42.25
4469;BME280;2247;42.666;23.292;2024-01-30T12:07:12;96216.38;;;5.54;41.91
4469;BME280;2247;42.666;23.292;2024-01-30T12:09:41;96207.94;;;5.52;42.00
4469;BME280;2247;42.666;23.292;2024-01-30T12:12:09;96197.88;;;5.49;41.91
4469;BME280;2247;42.666;23.292;2024-01-30T12:14:39;96165.84;;;5.41;41.97
4469;BME280;2247;42.666;23.292;2024-01-30T12:17:06;96193.56;;;5.76;42.00
4469;BME280;2247;42.666;23.292;2024-01-30T12:19:36;96188.41;;;5.89;41.90
4469;BME280;2247;42.666;23.292;2024-01-30T12:22:05;96196.69;;;6.00;41.22
4469;BME280;2247;42.666;23.292;2024-01-30T12:24:35;96180.22;;;6.06;41.34
4469;BME280;2247;42.666;23.292;2024-01-30T12:27:02;96182.22;;;6.17;41.19
4469;BME280;2247;42.666;23.292;2024-01-30T12:29:32;96192.31;;;6.20;40.89
4469;BME280;2247;42.666;23.292;2024-01-30T12:32:00;96168.94;;;6.12;40.90
4469;BME280;2247;42.666;23.292;2024-01-30T12:34:27;96178.41;;;6.19;40.59
4469;BME280;2247;42.666;23.292;2024-01-30T12:36:54;96183.84;;;6.18;40.76
4469;BME280;2247;42.666;23.292;2024-01-30T12:39:20;96170.16;;;6.16;40.68
4469;BME280;2247;42.666;23.292;2024-01-30T12:41:51;96172.38;;;6.25;41.05
4469;BME280;2247;42.666;23.292;2024-01-30T12:44:18;96155.69;;;6.20;40.61
4469;BME280;2247;42.666;23.292;2024-01-30T12:46:47;96154.25;;;6.17;40.67
4469;BME280;2247;42.666;23.292;2024-01-30T12:49:14;96164.47;;;5.92;41.36
4469;BME280;2247;42.666;23.292;2024-01-30T12:51:41;96173.09;;;5.86;41.24
4469;BME280;2247;42.666;23.292;2024-01-30T12:54:08;96160.78;;;5.80;41.47
4469;BME280;2247;42.666;23.292;2024-01-30T12:56:35;96155.94;;;5.71;41.76
4469;BME280;2247;42.666;23.292;2024-01-30T12:59:04;96168.22;;;5.83;41.84
4469;BME280;2247;42.666;23.292;2024-01-30T13:01:30;96160.19;;;5.78;41.96
4469;BME280;2247;42.666;23.292;2024-01-30T13:03:58;96162.19;;;5.76;41.89
4469;BME280;2247;42.666;23.292;2024-01-30T13:06:25;96165.13;;;5.60;41.69
4469;BME280;2247;42.666;23.292;2024-01-30T13:08:52;96156.91;;;5.70;41.70
4469;BME280;2247;42.666;23.292;2024-01-30T13:11:19;96143.69;;;5.84;41.79
4469;BME280;2247;42.666;23.292;2024-01-30T13:13:46;96136.84;;;5.77;41.41
4469;BME280;2247;42.666;23.292;2024-01-30T13:16:14;96149.72;;;5.78;41.62
4469;BME280;2247;42.666;23.292;2024-01-30T13:18:41;96143.63;;;5.65;41.62
4469;BME280;2247;42.666;23.292;2024-01-30T13:21:08;96148.94;;;5.84;41.69
4469;BME280;2247;42.666;23.292;2024-01-30T13:23:35;96130.41;;;5.79;41.14
4469;BME280;2247;42.666;23.292;2024-01-30T13:26:02;96145.09;;;5.74;41.51
4469;BME280;2247;42.666;23.292;2024-01-30T13:28:29;96144.66;;;5.70;42.03
4469;BME280;2247;42.666;23.292;2024-01-30T13:30:56;96156.81;;;5.43;42.43